sensor_id;sensor_type;location;lat;lon;timestamp;P1;durP1;ratioP1;P2;durP2;ratioP2
49626;SDS011;35527;54.616;39.786;2023-04-29T00:03:00;11.52;;;8.30;;
49626;SDS011;35527;54.616;39.786;2023-04-29T00:06:03;13.68;;;9.43;;
49626;SDS011;35527;54.616;39.786;2023-04-29T00:09:09;13.20;;;10.05;;
49626;SDS011;35527;54.616;39.786;2023-04-29T00:12:16;12.55;;;9.90;;
49626;SDS011;35527;54.616;39.786;2023-04-29T00:15:19;10.40;;;8.90;;
49626;SDS011;35527;54.616;39.786;2023-04-29T00:18:26;11.68;;;8.85;;
49626;SDS011;35527;54.616;39.786;2023-04-29T00:21:29;11.52;;;9.48;;
49626;SDS011;35527;54.616;39.786;2023-04-29T00:27:39;9.77;;;8.30;;
49626;SDS011;35527;54.616;39.786;2023-04-29T00:30:43;9.73;;;7.80;;
49626;SDS011;35527;54.616;39.786;2023-04-29T00:33:46;9.40;;;8.23;;
49626;SDS011;35527;54.616;39.786;2023-04-29T00:36:49;11.40;;;10.07;;
49626;SDS011;35527;54.616;39.786;2023-04-29T00:39:52;13.48;;;10.38;;
49626;SDS011;35527;54.616;39.786;2023-04-29T00:42:58;11.23;;;9.20;;
49626;SDS011;35527;54.616;39.786;2023-04-29T00:46:02;11.18;;;9.20;;
49626;SDS011;35527;54.616;39.786;2023-04-29T00:49:07;13.23;;;10.45;;
49626;SDS011;35527;54.616;39.786;2023-04-29T00:52:13;15.07;;;12.82;;
49626;SDS011;35527;54.616;39.786;2023-04-29T00:55:20;18.58;;;15.15;;
49626;SDS011;35527;54.616;39.786;2023-04-29T00:58:28;16.77;;;13.68;;
49626;SDS011;35527;54.616;39.786;2023-04-29T01:01:38;13.23;;;10.90;;
49626;SDS011;35527;54.616;39.786;2023-04-29T01:04:41;12.07;;;9.98;;
49626;SDS011;35527;54.616;39.786;2023-04-29T01:11:12;10.25;;;7.78;;
49626;SDS011;35527;54.616;39.786;2023-04-29T01:14:22;11.18;;;8.40;;
49626;SDS011;35527;54.616;39.786;2023-04-29T01:17:27;9.85;;;7.32;;
49626;SDS011;35527;54.616;39.786;2023-04-29T01:20:39;11.85;;;7.65;;
49626;SDS011;35527;54.616;39.786;2023-04-29T01:23:43;10.05;;;7.75;;
49626;SDS011;35527;54.616;39.786;2023-04-29T01:27:56;10.07;;;8.30;;
49626;SDS011;35527;54.616;39.786;2023-04-29T01:30:49;11.90;;;9.40;;
49626;SDS011;35527;54.616;39.786;2023-04-29T01:34:28;11.45;;;8.80;;
49626;SDS011;35527;54.616;39.786;2023-04-29T01:37:42;11.35;;;9.13;;
49626;SDS011;35527;54.616;39.786;2023-04-29T01:40:58;13.30;;;9.40;;
49626;SDS011;35527;54.616;39.786;2023-04-29T01:44:36;11.60;;;8.90;;
49626;SDS011;35527;54.616;39.786;2023-04-29T01:47:40;10.20;;;8.50;;
49626;SDS011;35527;54.616;39.786;2023-04-29T01:50:44;10.27;;;8.35;;
49626;SDS011;35527;54.616;39.786;2023-04-29T01:53:50;10.93;;;8.38;;
49626;SDS011;35527;54.616;39.786;2023-04-29T01:56:53;8.82;;;7.25;;
49626;SDS011;35527;54.616;39.786;2023-04-29T02:00:12;9.90;;;7.63;;
49626;SDS011;35527;54.616;39.786;2023-04-29T02:03:21;10.80;;;8.10;;
49626;SDS011;35527;54.616;39.786;2023-04-29T02:06:28;10.13;;;7.80;;
49626;SDS011;35527;54.616;39.786;2023-04-29T02:09:38;10.57;;;7.32;;
49626;SDS011;35527;54.616;39.786;2023-04-29T02:12:45;9.73;;;7.57;;
49626;SDS011;35527;54.616;39.786;2023-04-29T02:18:52;7.63;;;5.43;;
49626;SDS011;35527;54.616;39.786;2023-04-29T02:21:55;7.60;;;5.88;;
49626;SDS011;35527;54.616;39.786;2023-04-29T02:25:00;8.38;;;5.50;;
49626;SDS011;35527;54.616;39.786;2023-04-29T02:28:03;8.52;;;5.85;;
49626;SDS011;35527;54.616;39.786;2023-04-29T02:31:08;5.78;;;3.00;;
49626;SDS011;35527;54.616;39.786;2023-04-29T02:34:18;9.52;;;6.07;;
49626;SDS011;35527;54.616;39.786;2023-04-29T02:37:21;8.70;;;5.72;;
49626;SDS011;35527;54.616;39.786;2023-04-29T02:40:26;6.65;;;2.90;;
49626;SDS011;35527;54.616;39.786;2023-04-29T02:43:29;9.02;;;5.50;;
49626;SDS011;35527;54.616;39.786;2023-04-29T02:46:38;7.72;;;5.30;;
49626;SDS011;35527;54.616;39.786;2023-04-29T02:49:43;7.60;;;4.50;;
49626;SDS011;35527;54.616;39.786;2023-04-29T02:52:48;7.90;;;4.68;;
49626;SDS011;35527;54.616;39.786;2023-04-29T02:55:51;3.17;;;1.75;;
49626;SDS011;35527;54.616;39.786;2023-04-29T02:58:54;9.00;;;4.90;;
49626;SDS011;35527;54.616;39.786;2023-04-29T03:01:59;5.30;;;2.33;;
49626;SDS011;35527;54.616;39.786;2023-04-29T03:05:04;7.28;;;3.22;;
49626;SDS011;35527;54.616;39.786;2023-04-29T03:08:07;6.28;;;2.80;;
49626;SDS011;35527;54.616;39.786;2023-04-29T03:11:12;7.45;;;5.32;;
49626;SDS011;35527;54.616;39.786;2023-04-29T03:14:17;6.85;;;4.88;;
49626;SDS011;35527;54.616;39.786;2023-04-29T03:17:25;6.03;;;2.35;;
49626;SDS011;35527;54.616;39.786;2023-04-29T03:20:28;6.43;;;3.13;;
49626;SDS011;35527;54.616;39.786;2023-04-29T03:23:31;6.70;;;4.90;;
49626;SDS011;35527;54.616;39.786;2023-04-29T03:26:39;5.40;;;3.63;;
49626;SDS011;35527;54.616;39.786;2023-04-29T03:29:45;5.28;;;3.67;;
49626;SDS011;35527;54.616;39.786;2023-04-29T03:32:49;4.10;;;2.60;;
49626;SDS011;35527;54.616;39.786;2023-04-29T03:35:52;5.10;;;3.40;;
49626;SDS011;35527;54.616;39.786;2023-04-29T03:39:11;5.10;;;3.17;;
49626;SDS011;35527;54.616;39.786;2023-04-29T03:42:14;3.80;;;2.10;;
49626;SDS011;35527;54.616;39.786;2023-04-29T03:45:18;2.72;;;1.50;;
49626;SDS011;35527;54.616;39.786;2023-04-29T03:48:21;3.53;;;1.48;;
49626;SDS011;35527;54.616;39.786;2023-04-29T03:51:26;2.20;;;1.17;;
49626;SDS011;35527;54.616;39.786;2023-04-29T03:54:39;0.85;;;0.65;;
49626;SDS011;35527;54.616;39.786;2023-04-29T03:57:42;2.50;;;1.20;;
49626;SDS011;35527;54.616;39.786;2023-04-29T04:00:47;2.03;;;1.20;;
49626;SDS011;35527;54.616;39.786;2023-04-29T04:03:57;2.13;;;1.20;;
49626;SDS011;35527;54.616;39.786;2023-04-29T04:07:02;1.17;;;0.60;;
49626;SDS011;35527;54.616;39.786;2023-04-29T04:10:18;3.00;;;0.73;;
49626;SDS011;35527;54.616;39.786;2023-04-29T04:13:22;0.98;;;0.52;;
49626;SDS011;35527;54.616;39.786;2023-04-29T04:16:26;1.25;;;0.90;;
49626;SDS011;35527;54.616;39.786;2023-04-29T04:19:32;1.90;;;1.10;;
49626;SDS011;35527;54.616;39.786;2023-04-29T04:22:37;0.68;;;0.47;;
49626;SDS011;35527;54.616;39.786;2023-04-29T04:26:11;0.85;;;0.52;;
49626;SDS011;35527;54.616;39.786;2023-04-29T04:29:17;2.03;;;1.30;;
49626;SDS011;35527;54.616;39.786;2023-04-29T04:32:29;0.90;;;0.73;;
49626;SDS011;35527;54.616;39.786;2023-04-29T04:35:33;1.08;;;0.85;;
49626;SDS011;35527;54.616;39.786;2023-04-29T04:38:37;1.38;;;0.80;;
49626;SDS011;35527;54.616;39.786;2023-04-29T04:41:45;2.03;;;0.80;;
49626;SDS011;35527;54.616;39.786;2023-04-29T04:44:49;0.82;;;0.28;;
49626;SDS011;35527;54.616;39.786;2023-04-29T04:48:11;1.80;;;0.60;;
49626;SDS011;35527;54.616;39.786;2023-04-29T04:54:20;1.42;;;0.50;;
49626;SDS011;35527;54.616;39.786;2023-04-29T04:57:34;0.45;;;0.45;;
49626;SDS011;35527;54.616;39.786;2023-04-29T05:00:37;0.35;;;0.30;;
49626;SDS011;35527;54.616;39.786;2023-04-29T05:03:45;0.77;;;0.35;;
49626;SDS011;35527;54.616;39.786;2023-04-29T05:06:54;0.50;;;0.30;;
49626;SDS011;35527;54.616;39.786;2023-04-29T05:10:00;2.08;;;0.80;;
49626;SDS011;35527;54.616;39.786;2023-04-29T05:13:06;1.10;;;0.50;;
49626;SDS011;35527;54.616;39.786;2023-04-29T05:19:20;1.58;;;0.40;;
49626;SDS011;35527;54.616;39.786;2023-04-29T05:22:26;0.40;;;0.30;;
49626;SDS011;35527;54.616;39.786;2023-04-29T05:25:29;1.55;;;0.50;;
49626;SDS011;35527;54.616;39.786;2023-04-29T05:28:34;0.75;;;0.50;;
49626;SDS011;35527;54.616;39.786;2023-04-29T05:31:41;0.43;;;0.30;;
49626;SDS011;35527;54.616;39.786;2023-04-29T05:34:45;0.43;;;0.30;;
49626;SDS011;35527;54.616;39.786;2023-04-29T05:37:56;0.57;;;0.43;;
49626;SDS011;35527;54.616;39.786;2023-04-29T05:41:19;0.13;;;0.13;;
49626;SDS011;35527;54.616;39.786;2023-04-29T05:44:49;0.95;;;0.40;;
49626;SDS011;35527;54.616;39.786;2023-04-29T05:47:53;0.93;;;0.40;;
49626;SDS011;35527;54.616;39.786;2023-04-29T05:50:57;0.77;;;0.68;;
49626;SDS011;35527;54.616;39.786;2023-04-29T05:54:00;1.50;;;0.68;;
49626;SDS011;35527;54.616;39.786;2023-04-29T05:57:07;0.57;;;0.30;;
49626;SDS011;35527;54.616;39.786;2023-04-29T06:00:14;1.52;;;0.68;;
49626;SDS011;35527;54.616;39.786;2023-04-29T06:03:19;0.70;;;0.60;;
49626;SDS011;35527;54.616;39.786;2023-04-29T06:06:32;1.08;;;0.60;;
49626;SDS011;35527;54.616;39.786;2023-04-29T06:10:04;0.47;;;0.35;;
49626;SDS011;35527;54.616;39.786;2023-04-29T06:13:09;2.05;;;0.70;;
49626;SDS011;35527;54.616;39.786;2023-04-29T06:16:13;3.65;;;0.90;;
49626;SDS011;35527;54.616;39.786;2023-04-29T06:19:20;2.45;;;0.90;;
49626;SDS011;35527;54.616;39.786;2023-04-29T06:22:25;2.50;;;0.98;;
49626;SDS011;35527;54.616;39.786;2023-04-29T06:25:37;0.80;;;0.63;;
49626;SDS011;35527;54.616;39.786;2023-04-29T06:28:42;1.65;;;0.90;;
49626;SDS011;35527;54.616;39.786;2023-04-29T06:31:47;0.80;;;0.63;;
49626;SDS011;35527;54.616;39.786;2023-04-29T06:34:53;1.48;;;0.85;;
49626;SDS011;35527;54.616;39.786;2023-04-29T06:38:03;2.10;;;0.80;;
49626;SDS011;35527;54.616;39.786;2023-04-29T06:41:36;3.50;;;0.80;;
49626;SDS011;35527;54.616;39.786;2023-04-29T06:44:59;1.55;;;0.70;;
49626;SDS011;35527;54.616;39.786;2023-04-29T06:48:14;0.60;;;0.57;;
49626;SDS011;35527;54.616;39.786;2023-04-29T06:51:21;1.55;;;0.65;;
49626;SDS011;35527;54.616;39.786;2023-04-29T06:54:24;1.58;;;0.55;;
49626;SDS011;35527;54.616;39.786;2023-04-29T06:57:30;0.88;;;0.40;;
49626;SDS011;35527;54.616;39.786;2023-04-29T07:00:42;0.35;;;0.35;;
49626;SDS011;35527;54.616;39.786;2023-04-29T07:03:47;1.50;;;0.77;;
49626;SDS011;35527;54.616;39.786;2023-04-29T07:06:53;0.75;;;0.60;;
49626;SDS011;35527;54.616;39.786;2023-04-29T07:10:01;1.45;;;0.50;;
49626;SDS011;35527;54.616;39.786;2023-04-29T07:13:09;0.80;;;0.50;;
49626;SDS011;35527;54.616;39.786;2023-04-29T07:16:17;1.95;;;0.68;;
49626;SDS011;35527;54.616;39.786;2023-04-29T07:19:23;0.32;;;0.30;;
49626;SDS011;35527;54.616;39.786;2023-04-29T07:22:31;1.55;;;0.80;;
49626;SDS011;35527;54.616;39.786;2023-04-29T07:25:40;0.52;;;0.30;;
49626;SDS011;35527;54.616;39.786;2023-04-29T07:28:46;0.70;;;0.50;;
49626;SDS011;35527;54.616;39.786;2023-04-29T07:31:52;0.88;;;0.60;;
49626;SDS011;35527;54.616;39.786;2023-04-29T07:34:57;1.80;;;0.60;;
49626;SDS011;35527;54.616;39.786;2023-04-29T07:38:04;0.32;;;0.32;;
49626;SDS011;35527;54.616;39.786;2023-04-29T07:41:08;1.05;;;0.47;;
49626;SDS011;35527;54.616;39.786;2023-04-29T07:44:16;1.92;;;0.65;;
49626;SDS011;35527;54.616;39.786;2023-04-29T07:47:19;0.85;;;0.50;;
49626;SDS011;35527;54.616;39.786;2023-04-29T07:50:24;0.73;;;0.30;;
49626;SDS011;35527;54.616;39.786;2023-04-29T07:53:29;1.15;;;0.47;;
49626;SDS011;35527;54.616;39.786;2023-04-29T07:56:33;1.60;;;0.63;;
49626;SDS011;35527;54.616;39.786;2023-04-29T07:59:37;2.33;;;0.77;;
49626;SDS011;35527;54.616;39.786;2023-04-29T08:02:45;0.75;;;0.50;;
49626;SDS011;35527;54.616;39.786;2023-04-29T08:05:49;0.90;;;0.70;;
49626;SDS011;35527;54.616;39.786;2023-04-29T08:08:56;1.63;;;0.60;;
49626;SDS011;35527;54.616;39.786;2023-04-29T08:12:04;1.77;;;0.70;;
49626;SDS011;35527;54.616;39.786;2023-04-29T08:15:10;1.00;;;0.70;;
49626;SDS011;35527;54.616;39.786;2023-04-29T08:18:14;0.40;;;0.30;;
49626;SDS011;35527;54.616;39.786;2023-04-29T08:21:18;1.75;;;0.68;;
49626;SDS011;35527;54.616;39.786;2023-04-29T08:24:22;1.23;;;0.60;;
49626;SDS011;35527;54.616;39.786;2023-04-29T08:27:26;0.38;;;0.38;;
49626;SDS011;35527;54.616;39.786;2023-04-29T08:30:30;0.40;;;0.40;;
49626;SDS011;35527;54.616;39.786;2023-04-29T08:33:35;1.73;;;0.80;;
49626;SDS011;35527;54.616;39.786;2023-04-29T08:36:42;0.77;;;0.70;;
49626;SDS011;35527;54.616;39.786;2023-04-29T08:39:48;1.88;;;0.85;;
49626;SDS011;35527;54.616;39.786;2023-04-29T08:42:55;0.38;;;0.30;;
49626;SDS011;35527;54.616;39.786;2023-04-29T08:46:01;1.35;;;0.60;;
49626;SDS011;35527;54.616;39.786;2023-04-29T08:49:09;1.63;;;0.80;;
49626;SDS011;35527;54.616;39.786;2023-04-29T08:52:18;0.85;;;0.68;;
49626;SDS011;35527;54.616;39.786;2023-04-29T08:55:23;1.95;;;0.90;;
49626;SDS011;35527;54.616;39.786;2023-04-29T08:58:27;5.45;;;1.20;;
49626;SDS011;35527;54.616;39.786;2023-04-29T09:01:37;3.92;;;1.40;;
49626;SDS011;35527;54.616;39.786;2023-04-29T09:04:52;1.38;;;0.88;;
49626;SDS011;35527;54.616;39.786;2023-04-29T09:07:57;5.00;;;1.58;;
49626;SDS011;35527;54.616;39.786;2023-04-29T09:11:07;3.13;;;1.73;;
49626;SDS011;35527;54.616;39.786;2023-04-29T09:14:13;2.67;;;1.30;;
49626;SDS011;35527;54.616;39.786;2023-04-29T09:17:44;2.30;;;1.17;;
49626;SDS011;35527;54.616;39.786;2023-04-29T09:20:49;1.65;;;0.90;;
49626;SDS011;35527;54.616;39.786;2023-04-29T09:23:55;1.55;;;1.08;;
49626;SDS011;35527;54.616;39.786;2023-04-29T09:27:04;1.73;;;0.90;;
49626;SDS011;35527;54.616;39.786;2023-04-29T09:30:09;2.42;;;1.20;;
49626;SDS011;35527;54.616;39.786;2023-04-29T09:33:14;2.45;;;1.02;;
49626;SDS011;35527;54.616;39.786;2023-04-29T09:39:53;2.25;;;1.15;;
49626;SDS011;35527;54.616;39.786;2023-04-29T09:42:59;3.10;;;1.15;;
49626;SDS011;35527;54.616;39.786;2023-04-29T09:46:17;1.73;;;1.00;;
49626;SDS011;35527;54.616;39.786;2023-04-29T09:49:22;2.33;;;1.10;;
49626;SDS011;35527;54.616;39.786;2023-04-29T09:52:27;2.65;;;0.98;;
49626;SDS011;35527;54.616;39.786;2023-04-29T09:59:07;1.38;;;1.10;;
49626;SDS011;35527;54.616;39.786;2023-04-29T10:02:16;2.55;;;1.00;;
49626;SDS011;35527;54.616;39.786;2023-04-29T10:05:24;1.13;;;0.80;;
49626;SDS011;35527;54.616;39.786;2023-04-29T10:08:31;2.85;;;1.00;;
49626;SDS011;35527;54.616;39.786;2023-04-29T10:11:39;4.40;;;0.63;;
49626;SDS011;35527;54.616;39.786;2023-04-29T10:14:59;2.17;;;1.20;;
49626;SDS011;35527;54.616;39.786;2023-04-29T10:21:23;1.30;;;0.80;;
49626;SDS011;35527;54.616;39.786;2023-04-29T10:24:30;2.30;;;1.00;;
49626;SDS011;35527;54.616;39.786;2023-04-29T10:27:38;1.08;;;0.93;;
49626;SDS011;35527;54.616;39.786;2023-04-29T10:30:50;2.13;;;1.00;;
49626;SDS011;35527;54.616;39.786;2023-04-29T10:33:54;2.13;;;1.13;;
49626;SDS011;35527;54.616;39.786;2023-04-29T10:37:02;2.45;;;1.10;;
49626;SDS011;35527;54.616;39.786;2023-04-29T10:43:51;2.28;;;1.23;;
49626;SDS011;35527;54.616;39.786;2023-04-29T10:47:17;2.10;;;0.90;;
49626;SDS011;35527;54.616;39.786;2023-04-29T10:50:23;2.83;;;1.00;;
49626;SDS011;35527;54.616;39.786;2023-04-29T10:53:27;2.00;;;1.15;;
49626;SDS011;35527;54.616;39.786;2023-04-29T10:56:50;1.73;;;0.93;;
49626;SDS011;35527;54.616;39.786;2023-04-29T10:59:56;0.90;;;0.47;;
49626;SDS011;35527;54.616;39.786;2023-04-29T11:03:04;3.20;;;1.23;;
49626;SDS011;35527;54.616;39.786;2023-04-29T11:06:11;2.15;;;0.88;;
49626;SDS011;35527;54.616;39.786;2023-04-29T11:09:28;2.05;;;1.00;;
49626;SDS011;35527;54.616;39.786;2023-04-29T11:12:36;1.35;;;0.70;;
49626;SDS011;35527;54.616;39.786;2023-04-29T11:15:43;1.27;;;0.80;;
49626;SDS011;35527;54.616;39.786;2023-04-29T11:19:07;1.73;;;0.80;;
49626;SDS011;35527;54.616;39.786;2023-04-29T11:22:23;1.08;;;0.90;;
49626;SDS011;35527;54.616;39.786;2023-04-29T11:25:36;0.65;;;0.57;;
49626;SDS011;35527;54.616;39.786;2023-04-29T11:28:41;1.70;;;0.93;;
49626;SDS011;35527;54.616;39.786;2023-04-29T11:38:49;1.85;;;1.00;;
49626;SDS011;35527;54.616;39.786;2023-04-29T11:42:03;2.08;;;0.80;;
49626;SDS011;35527;54.616;39.786;2023-04-29T11:45:07;3.28;;;1.00;;
49626;SDS011;35527;54.616;39.786;2023-04-29T11:48:21;1.40;;;0.80;;
49626;SDS011;35527;54.616;39.786;2023-04-29T11:51:30;1.33;;;0.80;;
49626;SDS011;35527;54.616;39.786;2023-04-29T11:54:34;1.35;;;0.90;;
49626;SDS011;35527;54.616;39.786;2023-04-29T11:57:37;1.67;;;0.90;;
49626;SDS011;35527;54.616;39.786;2023-04-29T12:00:45;1.83;;;0.80;;
49626;SDS011;35527;54.616;39.786;2023-04-29T12:03:50;2.28;;;0.95;;
49626;SDS011;35527;54.616;39.786;2023-04-29T12:07:01;1.73;;;0.90;;
49626;SDS011;35527;54.616;39.786;2023-04-29T12:10:09;1.33;;;0.90;;
49626;SDS011;35527;54.616;39.786;2023-04-29T12:13:18;0.63;;;0.40;;
49626;SDS011;35527;54.616;39.786;2023-04-29T12:16:22;0.77;;;0.45;;
49626;SDS011;35527;54.616;39.786;2023-04-29T12:19:32;2.20;;;0.75;;
49626;SDS011;35527;54.616;39.786;2023-04-29T12:22:35;3.85;;;0.80;;
49626;SDS011;35527;54.616;39.786;2023-04-29T12:25:41;1.33;;;1.00;;
49626;SDS011;35527;54.616;39.786;2023-04-29T12:28:52;2.40;;;0.90;;
49626;SDS011;35527;54.616;39.786;2023-04-29T12:31:57;2.03;;;0.90;;
49626;SDS011;35527;54.616;39.786;2023-04-29T12:35:01;1.40;;;0.90;;
49626;SDS011;35527;54.616;39.786;2023-04-29T12:38:10;1.42;;;0.80;;
49626;SDS011;35527;54.616;39.786;2023-04-29T12:41:17;0.63;;;0.60;;
49626;SDS011;35527;54.616;39.786;2023-04-29T12:44:20;2.90;;;0.90;;
49626;SDS011;35527;54.616;39.786;2023-04-29T12:47:31;1.73;;;0.80;;
49626;SDS011;35527;54.616;39.786;2023-04-29T12:50:40;2.33;;;0.90;;
49626;SDS011;35527;54.616;39.786;2023-04-29T12:53:44;4.07;;;1.20;;
49626;SDS011;35527;54.616;39.786;2023-04-29T12:56:48;1.08;;;0.75;;
49626;SDS011;35527;54.616;39.786;2023-04-29T12:59:52;4.00;;;1.58;;
49626;SDS011;35527;54.616;39.786;2023-04-29T13:02:56;2.47;;;1.10;;
49626;SDS011;35527;54.616;39.786;2023-04-29T13:06:04;4.60;;;1.77;;
49626;SDS011;35527;54.616;39.786;2023-04-29T13:09:08;3.42;;;1.33;;
49626;SDS011;35527;54.616;39.786;2023-04-29T13:12:20;2.75;;;1.17;;
49626;SDS011;35527;54.616;39.786;2023-04-29T13:15:35;4.67;;;1.67;;
49626;SDS011;35527;54.616;39.786;2023-04-29T13:18:41;1.27;;;0.85;;
49626;SDS011;35527;54.616;39.786;2023-04-29T13:21:55;2.10;;;0.88;;
49626;SDS011;35527;54.616;39.786;2023-04-29T13:25:00;2.72;;;1.20;;
49626;SDS011;35527;54.616;39.786;2023-04-29T13:28:06;4.55;;;1.60;;
49626;SDS011;35527;54.616;39.786;2023-04-29T13:31:10;5.18;;;1.50;;
49626;SDS011;35527;54.616;39.786;2023-04-29T13:34:13;2.30;;;1.02;;
49626;SDS011;35527;54.616;39.786;2023-04-29T13:37:20;1.30;;;0.90;;
49626;SDS011;35527;54.616;39.786;2023-04-29T13:40:24;4.70;;;1.63;;
49626;SDS011;35527;54.616;39.786;2023-04-29T13:43:29;1.70;;;1.08;;
49626;SDS011;35527;54.616;39.786;2023-04-29T13:46:36;1.83;;;0.90;;
49626;SDS011;35527;54.616;39.786;2023-04-29T13:49:40;2.22;;;1.25;;
49626;SDS011;35527;54.616;39.786;2023-04-29T13:53:06;4.10;;;1.60;;
49626;SDS011;35527;54.616;39.786;2023-04-29T13:56:13;5.57;;;1.60;;
49626;SDS011;35527;54.616;39.786;2023-04-29T13:59:38;2.58;;;0.95;;
49626;SDS011;35527;54.616;39.786;2023-04-29T14:02:49;1.85;;;1.17;;
49626;SDS011;35527;54.616;39.786;2023-04-29T14:05:58;7.05;;;1.95;;
49626;SDS011;35527;54.616;39.786;2023-04-29T14:09:02;3.35;;;1.70;;
49626;SDS011;35527;54.616;39.786;2023-04-29T14:12:09;3.97;;;1.75;;
49626;SDS011;35527;54.616;39.786;2023-04-29T14:15:16;5.68;;;2.17;;
49626;SDS011;35527;54.616;39.786;2023-04-29T14:18:23;2.53;;;1.13;;
49626;SDS011;35527;54.616;39.786;2023-04-29T14:21:27;5.47;;;1.70;;
49626;SDS011;35527;54.616;39.786;2023-04-29T14:24:32;4.55;;;1.85;;
49626;SDS011;35527;54.616;39.786;2023-04-29T14:27:35;1.85;;;1.02;;
49626;SDS011;35527;54.616;39.786;2023-04-29T14:30:43;2.58;;;1.27;;
49626;SDS011;35527;54.616;39.786;2023-04-29T14:33:50;3.95;;;1.73;;
49626;SDS011;35527;54.616;39.786;2023-04-29T14:36:55;3.20;;;1.90;;
49626;SDS011;35527;54.616;39.786;2023-04-29T14:40:00;2.40;;;1.15;;
49626;SDS011;35527;54.616;39.786;2023-04-29T14:43:04;4.15;;;1.77;;
49626;SDS011;35527;54.616;39.786;2023-04-29T14:46:09;2.90;;;1.58;;
49626;SDS011;35527;54.616;39.786;2023-04-29T14:49:14;4.60;;;2.00;;
49626;SDS011;35527;54.616;39.786;2023-04-29T14:52:17;4.70;;;1.80;;
49626;SDS011;35527;54.616;39.786;2023-04-29T14:55:21;3.78;;;1.90;;
49626;SDS011;35527;54.616;39.786;2023-04-29T14:58:24;5.60;;;1.73;;
49626;SDS011;35527;54.616;39.786;2023-04-29T15:01:27;4.40;;;1.10;;
49626;SDS011;35527;54.616;39.786;2023-04-29T15:04:40;5.32;;;1.92;;
49626;SDS011;35527;54.616;39.786;2023-04-29T15:07:48;3.35;;;1.50;;
49626;SDS011;35527;54.616;39.786;2023-04-29T15:10:53;4.90;;;1.40;;
49626;SDS011;35527;54.616;39.786;2023-04-29T15:13:59;1.58;;;0.85;;
49626;SDS011;35527;54.616;39.786;2023-04-29T15:17:02;4.63;;;1.50;;
49626;SDS011;35527;54.616;39.786;2023-04-29T15:20:06;3.72;;;1.13;;
49626;SDS011;35527;54.616;39.786;2023-04-29T15:23:12;3.33;;;1.52;;
49626;SDS011;35527;54.616;39.786;2023-04-29T15:26:15;4.25;;;1.77;;
49626;SDS011;35527;54.616;39.786;2023-04-29T15:29:18;4.38;;;1.35;;
49626;SDS011;35527;54.616;39.786;2023-04-29T15:32:22;3.35;;;1.58;;
49626;SDS011;35527;54.616;39.786;2023-04-29T15:35:35;3.42;;;1.45;;
49626;SDS011;35527;54.616;39.786;2023-04-29T15:38:40;2.15;;;1.08;;
49626;SDS011;35527;54.616;39.786;2023-04-29T15:41:45;5.30;;;1.30;;
49626;SDS011;35527;54.616;39.786;2023-04-29T15:44:49;4.75;;;1.73;;
49626;SDS011;35527;54.616;39.786;2023-04-29T15:47:56;5.07;;;1.65;;
49626;SDS011;35527;54.616;39.786;2023-04-29T15:51:04;1.73;;;1.10;;
49626;SDS011;35527;54.616;39.786;2023-04-29T15:54:08;3.60;;;1.80;;
49626;SDS011;35527;54.616;39.786;2023-04-29T15:57:12;3.65;;;1.48;;
49626;SDS011;35527;54.616;39.786;2023-04-29T16:00:16;4.70;;;1.80;;
49626;SDS011;35527;54.616;39.786;2023-04-29T16:03:19;2.72;;;1.00;;
49626;SDS011;35527;54.616;39.786;2023-04-29T16:06:24;4.45;;;1.90;;
49626;SDS011;35527;54.616;39.786;2023-04-29T16:09:31;2.85;;;1.20;;
49626;SDS011;35527;54.616;39.786;2023-04-29T16:12:35;4.30;;;1.80;;
49626;SDS011;35527;54.616;39.786;2023-04-29T16:15:42;2.67;;;1.40;;
49626;SDS011;35527;54.616;39.786;2023-04-29T16:18:45;2.47;;;1.20;;
49626;SDS011;35527;54.616;39.786;2023-04-29T16:21:50;5.68;;;2.05;;
49626;SDS011;35527;54.616;39.786;2023-04-29T16:24:55;4.60;;;1.60;;
49626;SDS011;35527;54.616;39.786;2023-04-29T16:27:57;4.10;;;1.98;;
49626;SDS011;35527;54.616;39.786;2023-04-29T16:31:00;4.18;;;2.25;;
49626;SDS011;35527;54.616;39.786;2023-04-29T16:34:05;6.13;;;2.40;;
49626;SDS011;35527;54.616;39.786;2023-04-29T16:37:11;8.50;;;2.00;;
49626;SDS011;35527;54.616;39.786;2023-04-29T16:40:14;7.10;;;2.40;;
49626;SDS011;35527;54.616;39.786;2023-04-29T16:43:17;5.30;;;2.30;;
49626;SDS011;35527;54.616;39.786;2023-04-29T16:46:23;3.42;;;1.65;;
49626;SDS011;35527;54.616;39.786;2023-04-29T16:49:27;6.32;;;2.20;;
49626;SDS011;35527;54.616;39.786;2023-04-29T16:52:33;4.47;;;2.17;;
49626;SDS011;35527;54.616;39.786;2023-04-29T16:55:39;4.72;;;2.60;;
49626;SDS011;35527;54.616;39.786;2023-04-29T16:58:43;7.32;;;2.50;;
49626;SDS011;35527;54.616;39.786;2023-04-29T17:01:48;3.95;;;1.80;;
49626;SDS011;35527;54.616;39.786;2023-04-29T17:04:52;8.57;;;2.83;;
49626;SDS011;35527;54.616;39.786;2023-04-29T17:07:55;5.55;;;1.88;;
49626;SDS011;35527;54.616;39.786;2023-04-29T17:10:58;6.82;;;2.67;;
49626;SDS011;35527;54.616;39.786;2023-04-29T17:14:01;2.67;;;1.50;;
49626;SDS011;35527;54.616;39.786;2023-04-29T17:17:08;4.07;;;1.50;;
49626;SDS011;35527;54.616;39.786;2023-04-29T17:20:12;5.57;;;1.73;;
49626;SDS011;35527;54.616;39.786;2023-04-29T17:23:17;7.25;;;2.50;;
49626;SDS011;35527;54.616;39.786;2023-04-29T17:26:21;7.95;;;3.20;;
49626;SDS011;35527;54.616;39.786;2023-04-29T17:29:24;5.38;;;2.80;;
49626;SDS011;35527;54.616;39.786;2023-04-29T17:32:28;4.45;;;1.70;;
49626;SDS011;35527;54.616;39.786;2023-04-29T17:38:35;4.85;;;1.92;;
49626;SDS011;35527;54.616;39.786;2023-04-29T17:41:39;3.65;;;1.50;;
49626;SDS011;35527;54.616;39.786;2023-04-29T17:44:43;1.70;;;0.98;;
49626;SDS011;35527;54.616;39.786;2023-04-29T17:47:46;4.45;;;1.90;;
49626;SDS011;35527;54.616;39.786;2023-04-29T17:50:49;6.68;;;1.85;;
49626;SDS011;35527;54.616;39.786;2023-04-29T17:53:57;7.60;;;2.97;;
49626;SDS011;35527;54.616;39.786;2023-04-29T17:57:04;5.57;;;2.60;;
49626;SDS011;35527;54.616;39.786;2023-04-29T18:00:06;4.22;;;2.03;;
49626;SDS011;35527;54.616;39.786;2023-04-29T18:03:10;6.00;;;2.60;;
49626;SDS011;35527;54.616;39.786;2023-04-29T18:06:13;4.40;;;2.08;;
49626;SDS011;35527;54.616;39.786;2023-04-29T18:09:19;6.50;;;1.88;;
49626;SDS011;35527;54.616;39.786;2023-04-29T18:12:26;5.97;;;3.08;;
49626;SDS011;35527;54.616;39.786;2023-04-29T18:15:30;9.13;;;2.22;;
49626;SDS011;35527;54.616;39.786;2023-04-29T18:18:36;10.80;;;2.42;;
49626;SDS011;35527;54.616;39.786;2023-04-29T18:21:42;5.28;;;2.20;;
49626;SDS011;35527;54.616;39.786;2023-04-29T18:24:49;6.57;;;3.25;;
49626;SDS011;35527;54.616;39.786;2023-04-29T18:27:52;5.95;;;2.33;;
49626;SDS011;35527;54.616;39.786;2023-04-29T18:31:01;5.55;;;2.33;;
49626;SDS011;35527;54.616;39.786;2023-04-29T18:34:04;8.35;;;3.30;;
49626;SDS011;35527;54.616;39.786;2023-04-29T18:37:11;5.88;;;3.17;;
49626;SDS011;35527;54.616;39.786;2023-04-29T18:40:13;9.40;;;3.33;;
49626;SDS011;35527;54.616;39.786;2023-04-29T18:43:17;7.18;;;3.50;;
49626;SDS011;35527;54.616;39.786;2023-04-29T18:46:26;3.90;;;2.15;;
49626;SDS011;35527;54.616;39.786;2023-04-29T18:49:31;8.95;;;2.50;;
49626;SDS011;35527;54.616;39.786;2023-04-29T18:52:34;6.28;;;3.50;;
49626;SDS011;35527;54.616;39.786;2023-04-29T18:55:38;5.85;;;3.65;;
49626;SDS011;35527;54.616;39.786;2023-04-29T18:58:43;7.53;;;3.25;;
49626;SDS011;35527;54.616;39.786;2023-04-29T19:01:48;5.28;;;2.50;;
49626;SDS011;35527;54.616;39.786;2023-04-29T19:04:52;6.68;;;3.47;;
49626;SDS011;35527;54.616;39.786;2023-04-29T19:07:54;8.02;;;3.40;;
49626;SDS011;35527;54.616;39.786;2023-04-29T19:10:57;7.57;;;3.25;;